sensor_id;sensor_type;location;lat;lon;timestamp;temperature;humidity
1367;DHT22;16877;48.810;9.282;2024-01-16T00:02:22;9.30;52.80
1367;DHT22;16877;48.810;9.282;2024-01-16T00:04:50;9.30;52.80
1367;DHT22;16877;48.810;9.282;2024-01-16T00:07:16;9.20;52.60
1367;DHT22;16877;48.810;9.282;2024-01-16T00:09:43;9.30;52.70
1367;DHT22;16877;48.810;9.282;2024-01-16T00:12:11;9.30;52.60
1367;DHT22;16877;48.810;9.282;2024-01-16T00:14:37;9.10;52.30
1367;DHT22;16877;48.810;9.282;2024-01-16T00:17:05;9.00;52.20
1367;DHT22;16877;48.810;9.282;2024-01-16T00:19:33;9.10;52.50
1367;DHT22;16877;48.810;9.282;2024-01-16T00:21:59;8.80;52.20
1367;DHT22;16877;48.810;9.282;2024-01-16T00:24:28;9.20;52.60
1367;DHT22;16877;48.810;9.282;2024-01-16T00:26:55;9.00;52.40
1367;DHT22;16877;48.810;9.282;2024-01-16T00:29:21;8.90;52.40
1367;DHT22;16877;48.810;9.282;2024-01-16T00:31:49;8.80;52.20
1367;DHT22;16877;48.810;9.282;2024-01-16T00:34:15;9.00;52.30
1367;DHT22;16877;48.810;9.282;2024-01-16T00:36:44;9.00;52.30
1367;DHT22;16877;48.810;9.282;2024-01-16T00:39:10;9.00;52.40
1367;DHT22;16877;48.810;9.282;2024-01-16T00:41:37;9.00;52.40
1367;DHT22;16877;48.810;9.282;2024-01-16T00:44:04;8.90;52.30
1367;DHT22;16877;48.810;9.282;2024-01-16T00:46:30;8.90;52.40
1367;DHT22;16877;48.810;9.282;2024-01-16T00:48:57;9.00;52.60
1367;DHT22;16877;48.810;9.282;2024-01-16T00:51:24;9.10;52.80
1367;DHT22;16877;48.810;9.282;2024-01-16T00:53:52;8.90;52.60
1367;DHT22;16877;48.810;9.282;2024-01-16T00:56:19;8.90;52.60
1367;DHT22;16877;48.810;9.282;2024-01-16T00:58:45;8.80;52.60
1367;DHT22;16877;48.810;9.282;2024-01-16T01:01:12;9.00;52.80
1367;DHT22;16877;48.810;9.282;2024-01-16T01:03:39;8.90;52.70
1367;DHT22;16877;48.810;9.282;2024-01-16T01:06:06;8.90;52.70
1367;DHT22;16877;48.810;9.282;2024-01-16T01:08:32;9.10;52.90
1367;DHT22;16877;48.810;9.282;2024-01-16T01:11:00;9.20;52.90
1367;DHT22;16877;48.810;9.282;2024-01-16T01:13:28;9.10;52.90
1367;DHT22;16877;48.810;9.282;2024-01-16T01:15:55;9.10;53.00
1367;DHT22;16877;48.810;9.282;2024-01-16T01:18:21;9.10;53.00
1367;DHT22;16877;48.810;9.282;2024-01-16T01:20:48;9.10;53.00
1367;DHT22;16877;48.810;9.282;2024-01-16T01:23:15;9.20;53.00
1367;DHT22;16877;48.810;9.282;2024-01-16T01:25:42;9.00;52.90
1367;DHT22;16877;48.810;9.282;2024-01-16T01:28:10;9.20;53.00
1367;DHT22;16877;48.810;9.282;2024-01-16T01:30:37;9.00;52.90
1367;DHT22;16877;48.810;9.282;2024-01-16T01:33:04;9.10;53.10
1367;DHT22;16877;48.810;9.282;2024-01-16T01:35:31;9.10;53.10
1367;DHT22;16877;48.810;9.282;2024-01-16T01:37:57;9.20;53.20
1367;DHT22;16877;48.810;9.282;2024-01-16T01:40:24;9.20;53.40
1367;DHT22;16877;48.810;9.282;2024-01-16T01:42:51;9.30;53.40
1367;DHT22;16877;48.810;9.282;2024-01-16T01:45:19;9.20;53.30
1367;DHT22;16877;48.810;9.282;2024-01-16T01:47:45;9.30;53.30
1367;DHT22;16877;48.810;9.282;2024-01-16T01:50:13;9.30;53.20
1367;DHT22;16877;48.810;9.282;2024-01-16T01:52:41;9.20;53.30
1367;DHT22;16877;48.810;9.282;2024-01-16T01:55:11;9.40;53.40
1367;DHT22;16877;48.810;9.282;2024-01-16T01:57:38;9.30;53.90
1367;DHT22;16877;48.810;9.282;2024-01-16T02:00:06;9.30;53.30
1367;DHT22;16877;48.810;9.282;2024-01-16T02:02:34;9.40;53.40
1367;DHT22;16877;48.810;9.282;2024-01-16T02:05:01;9.60;53.50
1367;DHT22;16877;48.810;9.282;2024-01-16T02:07:29;9.20;53.30
1367;DHT22;16877;48.810;9.282;2024-01-16T02:09:57;9.40;53.60
1367;DHT22;16877;48.810;9.282;2024-01-16T02:12:25;9.50;53.60
1367;DHT22;16877;48.810;9.282;2024-01-16T02:14:52;9.50;53.50
1367;DHT22;16877;48.810;9.282;2024-01-16T02:17:19;9.40;53.30
1367;DHT22;16877;48.810;9.282;2024-01-16T02:19:47;9.60;53.40
1367;DHT22;16877;48.810;9.282;2024-01-16T02:22:16;9.70;53.40
1367;DHT22;16877;48.810;9.282;2024-01-16T02:24:47;9.40;53.20
1367;DHT22;16877;48.810;9.282;2024-01-16T02:27:14;9.50;53.30
1367;DHT22;16877;48.810;9.282;2024-01-16T02:29:41;9.40;53.40
1367;DHT22;16877;48.810;9.282;2024-01-16T02:32:09;9.50;53.40
1367;DHT22;16877;48.810;9.282;2024-01-16T02:34:36;9.50;53.40
1367;DHT22;16877;48.810;9.282;2024-01-16T02:37:03;9.40;53.20
1367;DHT22;16877;48.810;9.282;2024-01-16T02:39:29;9.20;53.10
1367;DHT22;16877;48.810;9.282;2024-01-16T02:41:58;9.40;53.20
1367;DHT22;16877;48.810;9.282;2024-01-16T02:44:24;9.60;53.30
1367;DHT22;16877;48.810;9.282;2024-01-16T02:46:51;9.40;53.10
1367;DHT22;16877;48.810;9.282;2024-01-16T02:49:18;9.30;53.20
1367;DHT22;16877;48.810;9.282;2024-01-16T02:51:45;9.40;53.30
1367;DHT22;16877;48.810;9.282;2024-01-16T02:54:11;9.40;53.40
1367;DHT22;16877;48.810;9.282;2024-01-16T02:56:38;9.40;53.30
1367;DHT22;16877;48.810;9.282;2024-01-16T02:59:06;9.40;53.20
1367;DHT22;16877;48.810;9.282;2024-01-16T03:01:33;9.50;53.20
1367;DHT22;16877;48.810;9.282;2024-01-16T03:03:59;9.20;52.90
1367;DHT22;16877;48.810;9.282;2024-01-16T03:06:26;9.40;53.10
1367;DHT22;16877;48.810;9.282;2024-01-16T03:08:54;9.40;53.20
1367;DHT22;16877;48.810;9.282;2024-01-16T03:11:21;9.30;53.20
1367;DHT22;16877;48.810;9.282;2024-01-16T03:13:47;9.30;53.20
1367;DHT22;16877;48.810;9.282;2024-01-16T03:16:16;9.40;53.30
1367;DHT22;16877;48.810;9.282;2024-01-16T03:18:43;9.30;53.30
1367;DHT22;16877;48.810;9.282;2024-01-16T03:21:10;9.40;53.50
1367;DHT22;16877;48.810;9.282;2024-01-16T03:23:38;9.50;53.60
1367;DHT22;16877;48.810;9.282;2024-01-16T03:26:05;9.20;53.30
1367;DHT22;16877;48.810;9.282;2024-01-16T03:28:31;9.20;53.10
1367;DHT22;16877;48.810;9.282;2024-01-16T03:30:58;9.40;53.20
1367;DHT22;16877;48.810;9.282;2024-01-16T03:33:26;9.40;53.30
1367;DHT22;16877;48.810;9.282;2024-01-16T03:35:53;9.30;53.20
1367;DHT22;16877;48.810;9.282;2024-01-16T03:38:19;9.40;53.30
1367;DHT22;16877;48.810;9.282;2024-01-16T03:40:46;9.30;53.10
1367;DHT22;16877;48.810;9.282;2024-01-16T03:43:13;9.30;53.00
1367;DHT22;16877;48.810;9.282;2024-01-16T03:45:39;9.30;53.00
1367;DHT22;16877;48.810;9.282;2024-01-16T03:48:06;9.50;53.10
1367;DHT22;16877;48.810;9.282;2024-01-16T03:50:34;9.30;52.90
1367;DHT22;16877;48.810;9.282;2024-01-16T03:53:01;9.10;52.80
1367;DHT22;16877;48.810;9.282;2024-01-16T03:55:29;9.50;53.00
1367;DHT22;16877;48.810;9.282;2024-01-16T03:57:55;9.20;52.70
1367;DHT22;16877;48.810;9.282;2024-01-16T04:00:22;9.30;52.80
1367;DHT22;16877;48.810;9.282;2024-01-16T04:02:49;9.20;52.80
1367;DHT22;16877;48.810;9.282;2024-01-16T04:05:15;9.20;52.80
1367;DHT22;16877;48.810;9.282;2024-01-16T04:07:43;9.10;52.80
1367;DHT22;16877;48.810;9.282;2024-01-16T04:10:10;9.10;52.90
1367;DHT22;16877;48.810;9.282;2024-01-16T04:12:37;9.20;53.00
1367;DHT22;16877;48.810;9.282;2024-01-16T04:15:04;9.10;53.10
1367;DHT22;16877;48.810;9.282;2024-01-16T04:17:31;9.10;53.10
1367;DHT22;16877;48.810;9.282;2024-01-16T04:19:57;9.20;53.10
1367;DHT22;16877;48.810;9.282;2024-01-16T04:22:24;9.20;53.10
1367;DHT22;16877;48.810;9.282;2024-01-16T04:24:52;9.00;52.90
1367;DHT22;16877;48.810;9.282;2024-01-16T04:27:19;9.00;52.80
1367;DHT22;16877;48.810;9.282;2024-01-16T04:29:46;8.90;52.60
1367;DHT22;16877;48.810;9.282;2024-01-16T04:32:12;8.90;52.70
1367;DHT22;16877;48.810;9.282;2024-01-16T04:34:39;8.90;52.80
1367;DHT22;16877;48.810;9.282;2024-01-16T04:37:06;8.90;52.80
1367;DHT22;16877;48.810;9.282;2024-01-16T04:39:32;8.90;52.70
1367;DHT22;16877;48.810;9.282;2024-01-16T04:42:00;8.90;52.70
1367;DHT22;16877;48.810;9.282;2024-01-16T04:44:27;8.90;52.70
1367;DHT22;16877;48.810;9.282;2024-01-16T04:46:54;9.00;52.60
1367;DHT22;16877;48.810;9.282;2024-01-16T04:49:20;9.00;52.60
1367;DHT22;16877;48.810;9.282;2024-01-16T04:51:47;8.90;52.50
1367;DHT22;16877;48.810;9.282;2024-01-16T04:54:14;8.90;52.60
1367;DHT22;16877;48.810;9.282;2024-01-16T04:56:40;8.60;52.50
1367;DHT22;16877;48.810;9.282;2024-01-16T04:59:08;8.80;52.70
1367;DHT22;16877;48.810;9.282;2024-01-16T05:01:35;8.70;52.70
1367;DHT22;16877;48.810;9.282;2024-01-16T05:04:01;8.80;52.90
1367;DHT22;16877;48.810;9.282;2024-01-16T05:06:29;8.80;53.00
1367;DHT22;16877;48.810;9.282;2024-01-16T05:08:56;8.90;52.90
1367;DHT22;16877;48.810;9.282;2024-01-16T05:11:22;8.70;52.50
1367;DHT22;16877;48.810;9.282;2024-01-16T05:13:49;8.90;52.60
1367;DHT22;16877;48.810;9.282;2024-01-16T05:16:19;8.70;52.40
1367;DHT22;16877;48.810;9.282;2024-01-16T05:18:46;8.80;52.60
1367;DHT22;16877;48.810;9.282;2024-01-16T05:21:13;8.70;52.60
1367;DHT22;16877;48.810;9.282;2024-01-16T05:23:39;8.80;52.50
1367;DHT22;16877;48.810;9.282;2024-01-16T05:26:06;8.70;52.30
1367;DHT22;16877;48.810;9.282;2024-01-16T05:28:33;8.80;52.30
1367;DHT22;16877;48.810;9.282;2024-01-16T05:31:00;8.90;52.30
1367;DHT22;16877;48.810;9.282;2024-01-16T05:33:28;8.70;52.10
1367;DHT22;16877;48.810;9.282;2024-01-16T05:35:57;8.80;52.20
1367;DHT22;16877;48.810;9.282;2024-01-16T05:38:23;8.80;52.40
1367;DHT22;16877;48.810;9.282;2024-01-16T05:40:51;8.60;52.20
1367;DHT22;16877;48.810;9.282;2024-01-16T05:43:18;9.00;52.50
1367;DHT22;16877;48.810;9.282;2024-01-16T05:45:45;8.80;52.30
1367;DHT22;16877;48.810;9.282;2024-01-16T05:48:11;8.90;52.40
1367;DHT22;16877;48.810;9.282;2024-01-16T05:50:39;8.90;52.50
1367;DHT22;16877;48.810;9.282;2024-01-16T05:53:07;8.70;52.40
1367;DHT22;16877;48.810;9.282;2024-01-16T05:55:34;9.10;52.60
1367;DHT22;16877;48.810;9.282;2024-01-16T05:58:02;8.80;52.10
1367;DHT22;16877;48.810;9.282;2024-01-16T06:00:29;8.70;52.00
1367;DHT22;16877;48.810;9.282;2024-01-16T06:02:56;8.80;52.20
1367;DHT22;16877;48.810;9.282;2024-01-16T06:05:22;8.80;52.20
1367;DHT22;16877;48.810;9.282;2024-01-16T06:07:51;8.80;52.10
1367;DHT22;16877;48.810;9.282;2024-01-16T06:10:18;9.00;52.40
1367;DHT22;16877;48.810;9.282;2024-01-16T06:12:45;8.80;52.20
1367;DHT22;16877;48.810;9.282;2024-01-16T06:15:11;8.90;52.10
1367;DHT22;16877;48.810;9.282;2024-01-16T06:17:38;8.80;52.00
1367;DHT22;16877;48.810;9.282;2024-01-16T06:20:06;8.90;52.10
1367;DHT22;16877;48.810;9.282;2024-01-16T06:22:33;8.80;51.80
1367;DHT22;16877;48.810;9.282;2024-01-16T06:25:01;8.60;51.50
1367;DHT22;16877;48.810;9.282;2024-01-16T06:27:28;8.80;51.30
1367;DHT22;16877;48.810;9.282;2024-01-16T06:29:55;8.80;51.20
1367;DHT22;16877;48.810;9.282;2024-01-16T06:32:21;8.60;51.10
1367;DHT22;16877;48.810;9.282;2024-01-16T06:34:48;8.60;51.00
1367;DHT22;16877;48.810;9.282;2024-01-16T06:37:15;8.60;51.10
1367;DHT22;16877;48.810;9.282;2024-01-16T06:39:41;8.60;51.00
1367;DHT22;16877;48.810;9.282;2024-01-16T06:42:09;8.80;51.30
1367;DHT22;16877;48.810;9.282;2024-01-16T06:44:36;8.60;51.40
1367;DHT22;16877;48.810;9.282;2024-01-16T06:47:03;8.70;51.50
1367;DHT22;16877;48.810;9.282;2024-01-16T06:49:30;8.40;51.20
1367;DHT22;16877;48.810;9.282;2024-01-16T06:51:57;8.50;51.00
1367;DHT22;16877;48.810;9.282;2024-01-16T06:54:24;8.40;51.00
1367;DHT22;16877;48.810;9.282;2024-01-16T06:56:51;8.30;50.90
1367;DHT22;16877;48.810;9.282;2024-01-16T06:59:19;8.40;51.00
1367;DHT22;16877;48.810;9.282;2024-01-16T07:01:47;8.50;50.90
1367;DHT22;16877;48.810;9.282;2024-01-16T07:04:13;8.30;50.80
1367;DHT22;16877;48.810;9.282;2024-01-16T07:06:40;8.60;51.10
1367;DHT22;16877;48.810;9.282;2024-01-16T07:09:07;8.30;51.00
1367;DHT22;16877;48.810;9.282;2024-01-16T07:11:36;8.40;50.90
1367;DHT22;16877;48.810;9.282;2024-01-16T07:14:03;8.40;50.80
1367;DHT22;16877;48.810;9.282;2024-01-16T07:16:31;8.30;50.80
1367;DHT22;16877;48.810;9.282;2024-01-16T07:18:58;8.20;50.80
1367;DHT22;16877;48.810;9.282;2024-01-16T07:21:24;8.50;51.10
1367;DHT22;16877;48.810;9.282;2024-01-16T07:23:51;8.20;50.80
1367;DHT22;16877;48.810;9.282;2024-01-16T07:26:18;8.30;50.90
1367;DHT22;16877;48.810;9.282;2024-01-16T07:28:45;8.40;50.90
1367;DHT22;16877;48.810;9.282;2024-01-16T07:31:13;8.20;50.70
1367;DHT22;16877;48.810;9.282;2024-01-16T07:33:43;8.30;50.80
1367;DHT22;16877;48.810;9.282;2024-01-16T07:36:11;8.40;50.80
1367;DHT22;16877;48.810;9.282;2024-01-16T07:38:38;8.20;50.80
1367;DHT22;16877;48.810;9.282;2024-01-16T07:41:04;8.30;50.90
1367;DHT22;16877;48.810;9.282;2024-01-16T07:43:32;8.00;50.90
1367;DHT22;16877;48.810;9.282;2024-01-16T07:45:58;8.20;51.00
1367;DHT22;16877;48.810;9.282;2024-01-16T07:48:25;8.50;54.80
1367;DHT22;16877;48.810;9.282;2024-01-16T07:50:53;8.60;54.60
1367;DHT22;16877;48.810;9.282;2024-01-16T07:53:20;8.70;55.90
1367;DHT22;16877;48.810;9.282;2024-01-16T07:55:46;8.30;52.60
1367;DHT22;16877;48.810;9.282;2024-01-16T07:58:14;8.60;51.80
1367;DHT22;16877;48.810;9.282;2024-01-16T08:00:41;8.60;51.20
1367;DHT22;16877;48.810;9.282;2024-01-16T08:03:08;8.60;50.90
1367;DHT22;16877;48.810;9.282;2024-01-16T08:05:37;8.40;50.60
1367;DHT22;16877;48.810;9.282;2024-01-16T08:08:07;8.50;50.40
1367;DHT22;16877;48.810;9.282;2024-01-16T08:10:34;8.50;50.30
1367;DHT22;16877;48.810;9.282;2024-01-16T08:13:01;8.60;50.30
1367;DHT22;16877;48.810;9.282;2024-01-16T08:15:28;8.50;50.10
1367;DHT22;16877;48.810;9.282;2024-01-16T08:17:55;8.70;50.40
1367;DHT22;16877;48.810;9.282;2024-01-16T08:20:22;8.70;50.50
1367;DHT22;16877;48.810;9.282;2024-01-16T08:22:48;8.60;50.20
1367;DHT22;16877;48.810;9.282;2024-01-16T08:25:17;8.70;50.20
1367;DHT22;16877;48.810;9.282;2024-01-16T08:27:44;8.40;49.70
1367;DHT22;16877;48.810;9.282;2024-01-16T08:30:11;8.70;50.00
1367;DHT22;16877;48.810;9.282;2024-01-16T08:32:37;8.70;49.90
1367;DHT22;16877;48.810;9.282;2024-01-16T08:35:05;9.00;50.00
1367;DHT22;16877;48.810;9.282;2024-01-16T08:37:32;8.90;49.80
1367;DHT22;16877;48.810;9.282;2024-01-16T08:39:59;8.80;49.80
1367;DHT22;16877;48.810;9.282;2024-01-16T08:42:27;8.90;49.70
1367;DHT22;16877;48.810;9.282;2024-01-16T08:44:54;9.20;49.80
1367;DHT22;16877;48.810;9.282;2024-01-16T08:47:20;9.00;49.50
1367;DHT22;16877;48.810;9.282;2024-01-16T08:49:47;9.10;49.60
1367;DHT22;16877;48.810;9.282;2024-01-16T08:52:14;9.00;49.40
1367;DHT22;16877;48.810;9.282;2024-01-16T08:54:41;9.30;49.50
1367;DHT22;16877;48.810;9.282;2024-01-16T08:57:08;9.20;49.20
1367;DHT22;16877;48.810;9.282;2024-01-16T08:59:37;9.10;49.10
1367;DHT22;16877;48.810;9.282;2024-01-16T09:02:04;9.20;49.00
1367;DHT22;16877;48.810;9.282;2024-01-16T09:04:31;9.20;48.90
1367;DHT22;16877;48.810;9.282;2024-01-16T09:06:58;9.30;48.90
1367;DHT22;16877;48.810;9.282;2024-01-16T09:09:25;9.30;48.60
1367;DHT22;16877;48.810;9.282;2024-01-16T09:11:51;9.20;48.50
1367;DHT22;16877;48.810;9.282;2024-01-16T09:14:18;9.20;48.40
1367;DHT22;16877;48.810;9.282;2024-01-16T09:16:47;9.20;48.30
1367;DHT22;16877;48.810;9.282;2024-01-16T09:19:13;9.20;48.30
1367;DHT22;16877;48.810;9.282;2024-01-16T09:21:40;9.30;48.30
1367;DHT22;16877;48.810;9.282;2024-01-16T09:24:07;9.20;47.90
1367;DHT22;16877;48.810;9.282;2024-01-16T09:26:34;9.20;48.20
1367;DHT22;16877;48.810;9.282;2024-01-16T09:29:01;9.40;48.00
1367;DHT22;16877;48.810;9.282;2024-01-16T09:31:28;9.40;48.00
1367;DHT22;16877;48.810;9.282;2024-01-16T09:33:56;9.40;48.20
1367;DHT22;16877;48.810;9.282;2024-01-16T09:36:23;9.40;48.00
1367;DHT22;16877;48.810;9.282;2024-01-16T09:38:49;9.50;48.00
1367;DHT22;16877;48.810;9.282;2024-01-16T09:41:16;9.20;48.20
1367;DHT22;16877;48.810;9.282;2024-01-16T09:43:43;9.40;48.10
1367;DHT22;16877;48.810;9.282;2024-01-16T09:46:11;9.40;48.20
1367;DHT22;16877;48.810;9.282;2024-01-16T09:48:38;9.70;48.30
1367;DHT22;16877;48.810;9.282;2024-01-16T09:51:08;9.60;48.30
1367;DHT22;16877;48.810;9.282;2024-01-16T09:53:35;9.70;48.20
1367;DHT22;16877;48.810;9.282;2024-01-16T09:56:02;9.80;48.30
1367;DHT22;16877;48.810;9.282;2024-01-16T09:58:34;9.80;48.30
1367;DHT22;16877;48.810;9.282;2024-01-16T10:01:03;9.80;48.40
1367;DHT22;16877;48.810;9.282;2024-01-16T10:03:31;10.00;47.70
1367;DHT22;16877;48.810;9.282;2024-01-16T10:05:57;10.00;47.40
1367;DHT22;16877;48.810;9.282;2024-01-16T10:08:27;10.20;47.70
1367;DHT22;16877;48.810;9.282;2024-01-16T10:10:53;10.30;47.60
1367;DHT22;16877;48.810;9.282;2024-01-16T10:13:20;10.50;48.20
1367;DHT22;16877;48.810;9.282;2024-01-16T10:15:49;10.60;47.90
1367;DHT22;16877;48.810;9.282;2024-01-16T10:18:22;10.90;48.00
1367;DHT22;16877;48.810;9.282;2024-01-16T10:20:49;10.90;47.50
1367;DHT22;16877;48.810;9.282;2024-01-16T10:23:22;10.90;47.20
1367;DHT22;16877;48.810;9.282;2024-01-16T10:26:04;11.00;47.50
1367;DHT22;16877;48.810;9.282;2024-01-16T10:28:32;11.10;47.30
1367;DHT22;16877;48.810;9.282;2024-01-16T10:31:02;11.20;47.40
1367;DHT22;16877;48.810;9.282;2024-01-16T10:33:29;11.30;47.80
1367;DHT22;16877;48.810;9.282;2024-01-16T10:36:08;11.50;47.90
1367;DHT22;16877;48.810;9.282;2024-01-16T10:38:36;11.60;48.70
1367;DHT22;16877;48.810;9.282;2024-01-16T10:41:10;11.90;48.70
1367;DHT22;16877;48.810;9.282;2024-01-16T10:43:37;12.10;49.00
1367;DHT22;16877;48.810;9.282;2024-01-16T10:46:09;12.50;56.00
1367;DHT22;16877;48.810;9.282;2024-01-16T10:48:38;12.80;54.70
1367;DHT22;16877;48.810;9.282;2024-01-16T10:51:06;12.90;53.00
1367;DHT22;16877;48.810;9.282;2024-01-16T10:53:34;13.50;52.80
1367;DHT22;16877;48.810;9.282;2024-01-16T10:56:01;13.70;53.40
1367;DHT22;16877;48.810;9.282;2024-01-16T10:58:30;14.40;52.80
1367;DHT22;16877;48.810;9.282;2024-01-16T11:01:02;14.50;52.70
1367;DHT22;16877;48.810;9.282;2024-01-16T11:03:35;15.30;52.00
1367;DHT22;16877;48.810;9.282;2024-01-16T11:06:02;15.70;51.00
1367;DHT22;16877;48.810;9.282;2024-01-16T11:08:32;16.50;51.50
1367;DHT22;16877;48.810;9.282;2024-01-16T11:10:59;16.80;50.80
1367;DHT22;16877;48.810;9.282;2024-01-16T11:13:27;17.20;51.60
1367;DHT22;16877;48.810;9.282;2024-01-16T11:15:56;17.50;50.10
1367;DHT22;16877;48.810;9.282;2024-01-16T11:18:25;18.20;48.90
1367;DHT22;16877;48.810;9.282;2024-01-16T11:20:52;18.30;48.00
1367;DHT22;16877;48.810;9.282;2024-01-16T11:23:20;18.90;47.60
1367;DHT22;16877;48.810;9.282;2024-01-16T11:25:46;19.70;47.00
1367;DHT22;16877;48.810;9.282;2024-01-16T11:28:14;20.10;47.00
1367;DHT22;16877;48.810;9.282;2024-01-16T11:30:42;20.40;46.80
1367;DHT22;16877;48.810;9.282;2024-01-16T11:33:43;21.00;46.40
1367;DHT22;16877;48.810;9.282;2024-01-16T11:36:42;21.40;47.10
1367;DHT22;16877;48.810;9.282;2024-01-16T11:39:11;22.00;46.30
1367;DHT22;16877;48.810;9.282;2024-01-16T11:41:53;22.40;45.60
1367;DHT22;16877;48.810;9.282;2024-01-16T11:44:42;22.50;44.40
1367;DHT22;16877;48.810;9.282;2024-01-16T11:47:14;22.80;44.10
1367;DHT22;16877;48.810;9.282;2024-01-16T11:49:43;22.80;42.80
1367;DHT22;16877;48.810;9.282;2024-01-16T11:52:09;23.10;42.70
1367;DHT22;16877;48.810;9.282;2024-01-16T11:54:38;23.40;42.10
1367;DHT22;16877;48.810;9.282;2024-01-16T11:57:30;23.50;41.40
1367;DHT22;16877;48.810;9.282;2024-01-16T12:00:03;23.90;40.30
1367;DHT22;16877;48.810;9.282;2024-01-16T12:02:52;24.00;39.90
1367;DHT22;16877;48.810;9.282;2024-01-16T12:05:21;24.20;39.10
1367;DHT22;16877;48.810;9.282;2024-01-16T12:07:49;24.10;38.70
1367;DHT22;16877;48.810;9.282;2024-01-16T12:10:17;23.80;39.20
1367;DHT22;16877;48.810;9.282;2024-01-16T12:12:44;24.30;39.30
1367;DHT22;16877;48.810;9.282;2024-01-16T12:15:15;24.10;38.00
1367;DHT22;16877;48.810;9.282;2024-01-16T12:17:56;24.30;38.50
1367;DHT22;16877;48.810;9.282;2024-01-16T12:20:25;24.20;37.20
1367;DHT22;16877;48.810;9.282;2024-01-16T12:23:00;24.10;37.40
1367;DHT22;16877;48.810;9.282;2024-01-16T12:25:28;24.00;36.20
1367;DHT22;16877;48.810;9.282;2024-01-16T12:27:56;23.80;36.40
1367;DHT22;16877;48.810;9.282;2024-01-16T12:30:27;23.50;36.70
1367;DHT22;16877;48.810;9.282;2024-01-16T12:33:05;23.80;37.70
1367;DHT22;16877;48.810;9.282;2024-01-16T12:35:34;23.70;37.40
1367;DHT22;16877;48.810;9.282;2024-01-16T12:38:01;23.80;37.60
1367;DHT22;16877;48.810;9.282;2024-01-16T12:40:28;23.80;37.80
1367;DHT22;16877;48.810;9.282;2024-01-16T12:42:55;24.20;38.30
1367;DHT22;16877;48.810;9.282;2024-01-16T12:45:22;24.40;38.50
1367;DHT22;16877;48.810;9.282;2024-01-16T12:47:52;24.60;38.60
1367;DHT22;16877;48.810;9.282;2024-01-16T12:50:20;24.70;37.60
1367;DHT22;16877;48.810;9.282;2024-01-16T12:52:49;24.80;45.70
1367;DHT22;16877;48.810;9.282;2024-01-16T12:55:16;25.00;46.50
1367;DHT22;16877;48.810;9.282;2024-01-16T12:57:44;25.60;46.40
1367;DHT22;16877;48.810;9.282;2024-01-16T13:00:24;25.50;45.60
1367;DHT22;16877;48.810;9.282;2024-01-16T13:02:51;25.50;45.00
1367;DHT22;16877;48.810;9.282;2024-01-16T13:05:18;26.00;44.90
1367;DHT22;16877;48.810;9.282;2024-01-16T13:07:45;26.20;44.60
1367;DHT22;16877;48.810;9.282;2024-01-16T13:10:13;26.30;44.30
1367;DHT22;16877;48.810;9.282;2024-01-16T13:12:43;26.50;44.10
1367;DHT22;16877;48.810;9.282;2024-01-16T13:15:11;26.70;44.00
1367;DHT22;16877;48.810;9.282;2024-01-16T13:17:42;26.60;43.50
1367;DHT22;16877;48.810;9.282;2024-01-16T13:20:09;26.60;43.60
1367;DHT22;16877;48.810;9.282;2024-01-16T13:22:38;26.40;43.60
1367;DHT22;16877;48.810;9.282;2024-01-16T13:25:05;26.30;43.20
1367;DHT22;16877;48.810;9.282;2024-01-16T13:27:33;26.50;42.90
1367;DHT22;16877;48.810;9.282;2024-01-16T13:30:00;26.30;42.20
1367;DHT22;16877;48.810;9.282;2024-01-16T13:32:27;26.40;42.70
1367;DHT22;16877;48.810;9.282;2024-01-16T13:34:53;26.40;42.40
1367;DHT22;16877;48.810;9.282;2024-01-16T13:37:21;26.40;42.20
1367;DHT22;16877;48.810;9.282;2024-01-16T13:39:48;26.70;41.40
1367;DHT22;16877;48.810;9.282;2024-01-16T13:42:15;26.60;40.40
1367;DHT22;16877;48.810;9.282;2024-01-16T13:44:46;26.80;39.80
1367;DHT22;16877;48.810;9.282;2024-01-16T13:47:15;26.60;39.10
1367;DHT22;16877;48.810;9.282;2024-01-16T13:49:41;26.80;38.80
1367;DHT22;16877;48.810;9.282;2024-01-16T13:52:08;26.40;37.90
1367;DHT22;16877;48.810;9.282;2024-01-16T13:54:37;26.30;37.40
1367;DHT22;16877;48.810;9.282;2024-01-16T13:57:05;26.20;36.80
1367;DHT22;16877;48.810;9.282;2024-01-16T13:59:32;26.20;37.00
1367;DHT22;16877;48.810;9.282;2024-01-16T14:02:01;26.10;36.40
1367;DHT22;16877;48.810;9.282;2024-01-16T14:04:28;25.80;36.30
1367;DHT22;16877;48.810;9.282;2024-01-16T14:06:55;25.80;36.50
1367;DHT22;16877;48.810;9.282;2024-01-16T14:09:21;25.80;36.00
1367;DHT22;16877;48.810;9.282;2024-01-16T14:11:48;26.00;35.90
1367;DHT22;16877;48.810;9.282;2024-01-16T14:14:15;25.90;35.90
1367;DHT22;16877;48.810;9.282;2024-01-16T14:16:42;26.00;36.30
1367;DHT22;16877;48.810;9.282;2024-01-16T14:19:10;26.30;36.50
1367;DHT22;16877;48.810;9.282;2024-01-16T14:21:36;26.20;36.40
1367;DHT22;16877;48.810;9.282;2024-01-16T14:24:04;26.20;36.70
1367;DHT22;16877;48.810;9.282;2024-01-16T14:26:30;26.10;36.70
1367;DHT22;16877;48.810;9.282;2024-01-16T14:28:57;26.00;36.80
1367;DHT22;16877;48.810;9.282;2024-01-16T14:31:24;25.90;36.80
1367;DHT22;16877;48.810;9.282;2024-01-16T14:33:52;26.00;36.90
1367;DHT22;16877;48.810;9.282;2024-01-16T14:36:20;25.80;36.60
1367;DHT22;16877;48.810;9.282;2024-01-16T14:38:46;26.30;37.00
1367;DHT22;16877;48.810;9.282;2024-01-16T14:41:14;26.20;37.30
1367;DHT22;16877;48.810;9.282;2024-01-16T14:43:42;26.00;37.20
1367;DHT22;16877;48.810;9.282;2024-01-16T14:46:08;26.10;37.20
1367;DHT22;16877;48.810;9.282;2024-01-16T14:48:36;26.00;37.20
1367;DHT22;16877;48.810;9.282;2024-01-16T14:51:03;26.10;37.10
1367;DHT22;16877;48.810;9.282;2024-01-16T14:53:31;26.10;37.20
1367;DHT22;16877;48.810;9.282;2024-01-16T14:55:58;26.10;37.30
1367;DHT22;16877;48.810;9.282;2024-01-16T14:58:24;26.30;37.30
1367;DHT22;16877;48.810;9.282;2024-01-16T15:00:51;26.10;37.10
1367;DHT22;16877;48.810;9.282;2024-01-16T15:03:19;26.50;37.30
1367;DHT22;16877;48.810;9.282;2024-01-16T15:05:46;26.30;37.20
1367;DHT22;16877;48.810;9.282;2024-01-16T15:08:13;26.00;37.20
1367;DHT22;16877;48.810;9.282;2024-01-16T15:10:41;25.80;37.00
1367;DHT22;16877;48.810;9.282;2024-01-16T15:13:08;25.80;37.00
1367;DHT22;16877;48.810;9.282;2024-01-16T15:15:35;25.90;35.90
1367;DHT22;16877;48.810;9.282;2024-01-16T15:18:03;25.90;33.80
1367;DHT22;16877;48.810;9.282;2024-01-16T15:20:30;25.40;33.30
1367;DHT22;16877;48.810;9.282;2024-01-16T15:22:56;25.20;33.20
1367;DHT22;16877;48.810;9.282;2024-01-16T15:25:23;24.70;33.90
1367;DHT22;16877;48.810;9.282;2024-01-16T15:27:51;24.30;31.60
1367;DHT22;16877;48.810;9.282;2024-01-16T15:30:19;24.10;31.80
1367;DHT22;16877;48.810;9.282;2024-01-16T15:32:47;23.40;31.10
1367;DHT22;16877;48.810;9.282;2024-01-16T15:35:14;23.20;31.00
1367;DHT22;16877;48.810;9.282;2024-01-16T15:37:41;23.00;31.20
1367;DHT22;16877;48.810;9.282;2024-01-16T15:40:10;22.90;31.30
1367;DHT22;16877;48.810;9.282;2024-01-16T15:42:37;22.40;31.60
1367;DHT22;16877;48.810;9.282;2024-01-16T15:45:07;22.00;31.40
1367;DHT22;16877;48.810;9.282;2024-01-16T15:47:35;21.20;31.10
1367;DHT22;16877;48.810;9.282;2024-01-16T15:50:02;21.20;31.50
1367;DHT22;16877;48.810;9.282;2024-01-16T15:52:30;20.70;31.70
1367;DHT22;16877;48.810;9.282;2024-01-16T15:54:56;20.40;31.80
1367;DHT22;16877;48.810;9.282;2024-01-16T15:57:23;19.90;31.90
1367;DHT22;16877;48.810;9.282;2024-01-16T15:59:50;19.50;32.00